sensor_id;sensor_type;location;lat;lon;timestamp;pressure;altitude;pressure_sealevel;temperature;humidity
30875;BME280;17581;43.222;27.924;2023-02-28T00:00:48;101692.03;;;9.61;71.75
30875;BME280;17581;43.222;27.924;2023-02-28T00:03:13;101706.53;;;9.72;71.36
30875;BME280;17581;43.222;27.924;2023-02-28T00:05:39;101718.16;;;9.73;71.01
30875;BME280;17581;43.222;27.924;2023-02-28T00:08:04;101715.59;;;9.85;70.63
30875;BME280;17581;43.222;27.924;2023-02-28T00:10:30;101701.28;;;9.85;70.24
30875;BME280;17581;43.222;27.924;2023-02-28T00:13:01;101699.28;;;9.89;70.39
30875;BME280;17581;43.222;27.924;2023-02-28T00:15:28;101710.91;;;9.89;70.10
30875;BME280;17581;43.222;27.924;2023-02-28T00:17:54;101736.91;;;9.89;70.44
30875;BME280;17581;43.222;27.924;2023-02-28T00:20:20;101736.91;;;9.89;70.10
30875;BME280;17581;43.222;27.924;2023-02-28T00:22:48;101727.94;;;9.74;70.50
30875;BME280;17581;43.222;27.924;2023-02-28T00:25:17;101727.28;;;9.70;70.42
30875;BME280;17581;43.222;27.924;2023-02-28T00:27:43;101715.75;;;9.68;70.68
30875;BME280;17581;43.222;27.924;2023-02-28T00:30:11;101711.34;;;9.67;70.74
30875;BME280;17581;43.222;27.924;2023-02-28T00:32:38;101729.88;;;9.72;70.93
30875;BME280;17581;43.222;27.924;2023-02-28T00:35:04;101722.09;;;9.67;70.89
30875;BME280;17581;43.222;27.924;2023-02-28T00:37:30;101711.06;;;9.72;70.85
30875;BME280;17581;43.222;27.924;2023-02-28T00:39:55;101707.34;;;9.74;70.64
30875;BME280;17581;43.222;27.924;2023-02-28T00:42:21;101710.78;;;9.76;70.49
30875;BME280;17581;43.222;27.924;2023-02-28T00:44:47;101705.03;;;9.82;70.17
30875;BME280;17581;43.222;27.924;2023-02-28T00:47:12;101713.84;;;9.70;70.37
30875;BME280;17581;43.222;27.924;2023-02-28T00:49:38;101716.44;;;9.72;70.42
30875;BME280;17581;43.222;27.924;2023-02-28T00:52:03;101718.81;;;9.62;70.70
30875;BME280;17581;43.222;27.924;2023-02-28T00:54:29;101702.00;;;9.45;71.48
30875;BME280;17581;43.222;27.924;2023-02-28T00:56:54;101719.94;;;9.58;71.13
30875;BME280;17581;43.222;27.924;2023-02-28T00:59:20;101722.56;;;9.60;71.07
30875;BME280;17581;43.222;27.924;2023-02-28T01:01:46;101714.56;;;9.58;71.56
30875;BME280;17581;43.222;27.924;2023-02-28T01:04:12;101701.53;;;9.66;71.69
30875;BME280;17581;43.222;27.924;2023-02-28T01:06:38;101710.75;;;9.62;71.36
30875;BME280;17581;43.222;27.924;2023-02-28T01:09:05;101706.44;;;9.60;71.32
30875;BME280;17581;43.222;27.924;2023-02-28T01:11:32;101724.78;;;9.67;71.36
30875;BME280;17581;43.222;27.924;2023-02-28T01:13:58;101728.19;;;9.55;71.33
30875;BME280;17581;43.222;27.924;2023-02-28T01:16:24;101749.69;;;9.55;71.87
30875;BME280;17581;43.222;27.924;2023-02-28T01:18:49;101756.47;;;9.47;71.63
30875;BME280;17581;43.222;27.924;2023-02-28T01:21:16;101771.16;;;9.55;71.54
30875;BME280;17581;43.222;27.924;2023-02-28T01:23:42;101753.75;;;9.62;71.58
30875;BME280;17581;43.222;27.924;2023-02-28T01:26:14;101743.69;;;9.66;71.19
30875;BME280;17581;43.222;27.924;2023-02-28T01:28:41;101747.13;;;9.68;71.22
30875;BME280;17581;43.222;27.924;2023-02-28T01:31:06;101766.00;;;9.66;70.27
30875;BME280;17581;43.222;27.924;2023-02-28T01:33:33;101766.63;;;9.71;70.89
30875;BME280;17581;43.222;27.924;2023-02-28T01:36:04;101757.13;;;9.80;70.98
30875;BME280;17581;43.222;27.924;2023-02-28T01:38:30;101753.56;;;9.65;69.94
30875;BME280;17581;43.222;27.924;2023-02-28T01:40:56;101751.84;;;9.49;70.31
30875;BME280;17581;43.222;27.924;2023-02-28T01:43:28;101737.16;;;9.40;70.85
30875;BME280;17581;43.222;27.924;2023-02-28T01:45:55;101741.66;;;9.40;71.19
30875;BME280;17581;43.222;27.924;2023-02-28T01:48:26;101747.03;;;9.40;71.90
30875;BME280;17581;43.222;27.924;2023-02-28T01:50:53;101735.59;;;9.36;71.21
30875;BME280;17581;43.222;27.924;2023-02-28T01:53:24;101749.63;;;9.41;71.06
30875;BME280;17581;43.222;27.924;2023-02-28T01:55:53;101746.84;;;9.43;71.25
30875;BME280;17581;43.222;27.924;2023-02-28T01:58:21;101751.53;;;9.39;71.33
30875;BME280;17581;43.222;27.924;2023-02-28T02:00:46;101751.63;;;9.38;71.08
30875;BME280;17581;43.222;27.924;2023-02-28T02:03:15;101773.19;;;9.36;70.88
30875;BME280;17581;43.222;27.924;2023-02-28T02:05:45;101775.09;;;9.34;71.16
30875;BME280;17581;43.222;27.924;2023-02-28T02:08:16;101757.63;;;9.27;71.43
30875;BME280;17581;43.222;27.924;2023-02-28T02:10:48;101748.25;;;9.34;71.53
30875;BME280;17581;43.222;27.924;2023-02-28T02:13:25;101752.50;;;9.38;71.00
30875;BME280;17581;43.222;27.924;2023-02-28T02:29:51;101754.06;;;9.26;71.54
30875;BME280;17581;43.222;27.924;2023-02-28T02:35:26;101762.22;;;9.25;71.38
30875;BME280;17581;43.222;27.924;2023-02-28T02:40:29;101765.75;;;9.25;71.17
30875;BME280;17581;43.222;27.924;2023-02-28T02:45:42;101738.06;;;9.09;71.10
30875;BME280;17581;43.222;27.924;2023-02-28T02:48:13;101754.16;;;9.09;71.39
30875;BME280;17581;43.222;27.924;2023-02-28T02:50:48;101780.84;;;9.12;71.32
30875;BME280;17581;43.222;27.924;2023-02-28T02:53:17;101796.16;;;9.26;70.88
30875;BME280;17581;43.222;27.924;2023-02-28T02:55:46;101767.66;;;9.23;71.09
30875;BME280;17581;43.222;27.924;2023-02-28T02:58:16;101758.22;;;9.32;70.59
30875;BME280;17581;43.222;27.924;2023-02-28T03:00:47;101768.63;;;9.38;70.30
30875;BME280;17581;43.222;27.924;2023-02-28T03:03:15;101765.75;;;9.41;69.94
30875;BME280;17581;43.222;27.924;2023-02-28T03:05:52;101755.19;;;9.38;69.48
30875;BME280;17581;43.222;27.924;2023-02-28T03:08:17;101773.97;;;9.38;69.59
30875;BME280;17581;43.222;27.924;2023-02-28T03:10:46;101776.38;;;9.43;69.48
30875;BME280;17581;43.222;27.924;2023-02-28T03:21:34;101800.91;;;9.05;69.53
30875;BME280;17581;43.222;27.924;2023-02-28T03:24:21;101820.31;;;8.95;70.47
30875;BME280;17581;43.222;27.924;2023-02-28T03:26:58;101809.06;;;9.04;70.52
30875;BME280;17581;43.222;27.924;2023-02-28T03:32:02;101775.47;;;8.97;69.82
30875;BME280;17581;43.222;27.924;2023-02-28T03:34:34;101773.81;;;8.79;70.82
30875;BME280;17581;43.222;27.924;2023-02-28T03:37:10;101796.72;;;8.68;71.42
30875;BME280;17581;43.222;27.924;2023-02-28T03:39:42;101793.41;;;8.48;71.99
30875;BME280;17581;43.222;27.924;2023-02-28T03:42:12;101802.31;;;8.48;72.29
30875;BME280;17581;43.222;27.924;2023-02-28T03:44:49;101792.03;;;8.41;73.29
30875;BME280;17581;43.222;27.924;2023-02-28T03:47:33;101800.84;;;8.43;72.84
30875;BME280;17581;43.222;27.924;2023-02-28T03:50:07;101797.63;;;8.36;73.48
30875;BME280;17581;43.222;27.924;2023-02-28T03:52:38;101809.91;;;8.23;73.88
30875;BME280;17581;43.222;27.924;2023-02-28T03:55:09;101828.06;;;8.01;74.50
30875;BME280;17581;43.222;27.924;2023-02-28T04:00:20;101838.28;;;7.76;76.26
30875;BME280;17581;43.222;27.924;2023-02-28T04:02:49;101814.50;;;7.87;76.38
30875;BME280;17581;43.222;27.924;2023-02-28T04:05:19;101818.59;;;7.94;75.91
30875;BME280;17581;43.222;27.924;2023-02-28T04:07:44;101823.25;;;7.90;75.77
30875;BME280;17581;43.222;27.924;2023-02-28T04:10:11;101800.31;;;8.02;75.36
30875;BME280;17581;43.222;27.924;2023-02-28T04:12:38;101799.66;;;8.14;74.48
30875;BME280;17581;43.222;27.924;2023-02-28T04:15:03;101794.16;;;8.17;74.37
30875;BME280;17581;43.222;27.924;2023-02-28T04:17:29;101798.88;;;8.29;74.69
30875;BME280;17581;43.222;27.924;2023-02-28T04:19:54;101808.66;;;8.30;73.50
30875;BME280;17581;43.222;27.924;2023-02-28T04:22:22;101823.66;;;8.34;73.16
30875;BME280;17581;43.222;27.924;2023-02-28T04:24:51;101803.59;;;8.41;72.86
30875;BME280;17581;43.222;27.924;2023-02-28T04:27:16;101792.03;;;8.56;72.98
30875;BME280;17581;43.222;27.924;2023-02-28T04:29:41;101807.78;;;8.62;72.25
30875;BME280;17581;43.222;27.924;2023-02-28T04:32:09;101799.31;;;8.54;73.00
30875;BME280;17581;43.222;27.924;2023-02-28T04:34:35;101810.09;;;8.37;73.48
30875;BME280;17581;43.222;27.924;2023-02-28T04:37:01;101806.91;;;8.46;73.61
30875;BME280;17581;43.222;27.924;2023-02-28T04:39:26;101792.38;;;8.50;73.13
30875;BME280;17581;43.222;27.924;2023-02-28T04:41:52;101799.50;;;8.67;72.59
30875;BME280;17581;43.222;27.924;2023-02-28T04:44:17;101782.75;;;8.79;72.07
30875;BME280;17581;43.222;27.924;2023-02-28T04:46:43;101769.25;;;8.81;72.00
30875;BME280;17581;43.222;27.924;2023-02-28T04:49:11;101787.84;;;8.99;71.29
30875;BME280;17581;43.222;27.924;2023-02-28T04:51:37;101779.13;;;8.96;71.02
30875;BME280;17581;43.222;27.924;2023-02-28T04:54:02;101777.38;;;8.95;71.28
30875;BME280;17581;43.222;27.924;2023-02-28T04:56:28;101790.88;;;9.09;70.32
30875;BME280;17581;43.222;27.924;2023-02-28T04:58:53;101788.13;;;8.95;70.79
30875;BME280;17581;43.222;27.924;2023-02-28T05:01:25;101796.94;;;8.97;70.38
30875;BME280;17581;43.222;27.924;2023-02-28T05:03:53;101788.47;;;8.89;71.29
30875;BME280;17581;43.222;27.924;2023-02-28T05:06:20;101796.88;;;8.98;71.08
30875;BME280;17581;43.222;27.924;2023-02-28T05:08:46;101792.97;;;8.88;71.22
30875;BME280;17581;43.222;27.924;2023-02-28T05:11:18;101803.88;;;9.01;71.33
30875;BME280;17581;43.222;27.924;2023-02-28T05:13:44;101800.06;;;9.05;71.38
30875;BME280;17581;43.222;27.924;2023-02-28T05:16:10;101790.03;;;8.93;71.73
30875;BME280;17581;43.222;27.924;2023-02-28T05:18:36;101793.66;;;8.92;71.87
30875;BME280;17581;43.222;27.924;2023-02-28T05:21:02;101803.47;;;8.60;72.71
30875;BME280;17581;43.222;27.924;2023-02-28T05:23:28;101809.97;;;8.56;73.84
30875;BME280;17581;43.222;27.924;2023-02-28T05:25:53;101822.28;;;8.43;74.08
30875;BME280;17581;43.222;27.924;2023-02-28T05:28:19;101818.19;;;8.53;74.42
30875;BME280;17581;43.222;27.924;2023-02-28T05:30:45;101823.31;;;8.40;74.29
30875;BME280;17581;43.222;27.924;2023-02-28T05:33:11;101824.88;;;8.44;74.71
30875;BME280;17581;43.222;27.924;2023-02-28T05:35:41;101828.75;;;8.39;74.51
30875;BME280;17581;43.222;27.924;2023-02-28T05:38:08;101840.28;;;8.41;75.63
30875;BME280;17581;43.222;27.924;2023-02-28T05:40:34;101858.63;;;8.48;75.42
30875;BME280;17581;43.222;27.924;2023-02-28T05:42:59;101881.16;;;8.61;75.17
30875;BME280;17581;43.222;27.924;2023-02-28T05:45:25;101907.34;;;8.73;74.32
30875;BME280;17581;43.222;27.924;2023-02-28T05:47:54;101909.03;;;8.74;74.20
30875;BME280;17581;43.222;27.924;2023-02-28T05:50:20;101926.41;;;8.85;73.97
30875;BME280;17581;43.222;27.924;2023-02-28T05:52:50;101922.59;;;8.89;73.72
30875;BME280;17581;43.222;27.924;2023-02-28T05:55:15;101926.06;;;8.91;73.57
30875;BME280;17581;43.222;27.924;2023-02-28T05:57:41;101903.81;;;8.89;73.06
30875;BME280;17581;43.222;27.924;2023-02-28T06:00:08;101904.94;;;8.85;73.84
30875;BME280;17581;43.222;27.924;2023-02-28T06:02:34;101894.41;;;8.47;75.09
30875;BME280;17581;43.222;27.924;2023-02-28T06:04:59;101866.22;;;8.40;76.07
30875;BME280;17581;43.222;27.924;2023-02-28T06:07:24;101878.00;;;8.53;76.69
30875;BME280;17581;43.222;27.924;2023-02-28T06:09:50;101887.47;;;8.26;77.52
30875;BME280;17581;43.222;27.924;2023-02-28T06:12:15;101902.22;;;8.00;78.77
30875;BME280;17581;43.222;27.924;2023-02-28T06:14:41;101900.88;;;7.92;79.94
30875;BME280;17581;43.222;27.924;2023-02-28T06:17:06;101902.19;;;7.64;80.75
30875;BME280;17581;43.222;27.924;2023-02-28T06:19:32;101909.59;;;7.59;81.91
30875;BME280;17581;43.222;27.924;2023-02-28T06:21:57;101910.75;;;7.73;82.28
30875;BME280;17581;43.222;27.924;2023-02-28T06:24:25;101902.25;;;7.82;83.40
30875;BME280;17581;43.222;27.924;2023-02-28T06:26:53;101903.19;;;7.81;83.93
30875;BME280;17581;43.222;27.924;2023-02-28T06:29:19;101904.81;;;7.66;82.99
30875;BME280;17581;43.222;27.924;2023-02-28T06:31:45;101894.69;;;7.73;83.54
30875;BME280;17581;43.222;27.924;2023-02-28T06:34:11;101910.28;;;7.82;83.71
30875;BME280;17581;43.222;27.924;2023-02-28T06:36:38;101889.31;;;7.73;84.38
30875;BME280;17581;43.222;27.924;2023-02-28T06:39:05;101884.78;;;7.56;84.67
30875;BME280;17581;43.222;27.924;2023-02-28T06:41:31;101899.75;;;7.60;84.53
30875;BME280;17581;43.222;27.924;2023-02-28T06:43:56;101898.59;;;7.65;84.52
30875;BME280;17581;43.222;27.924;2023-02-28T06:46:22;101898.22;;;7.73;85.49
30875;BME280;17581;43.222;27.924;2023-02-28T06:48:48;101880.63;;;7.67;85.29
30875;BME280;17581;43.222;27.924;2023-02-28T06:51:19;101886.97;;;7.84;86.16
30875;BME280;17581;43.222;27.924;2023-02-28T06:53:50;101887.00;;;7.65;85.31
30875;BME280;17581;43.222;27.924;2023-02-28T06:56:16;101900.34;;;7.66;85.62
30875;BME280;17581;43.222;27.924;2023-02-28T06:58:46;101899.88;;;7.76;86.39
30875;BME280;17581;43.222;27.924;2023-02-28T07:01:13;101877.31;;;7.62;86.84
30875;BME280;17581;43.222;27.924;2023-02-28T07:03:39;101881.91;;;7.78;87.49
30875;BME280;17581;43.222;27.924;2023-02-28T07:06:05;101889.13;;;7.94;87.59
30875;BME280;17581;43.222;27.924;2023-02-28T07:08:30;101881.00;;;7.96;87.70
30875;BME280;17581;43.222;27.924;2023-02-28T07:10:57;101889.06;;;8.13;87.06
30875;BME280;17581;43.222;27.924;2023-02-28T07:13:23;101905.59;;;8.21;86.92
30875;BME280;17581;43.222;27.924;2023-02-28T07:18:20;101907.97;;;8.27;86.12
30875;BME280;17581;43.222;27.924;2023-02-28T07:20:45;101899.78;;;8.13;85.70
30875;BME280;17581;43.222;27.924;2023-02-28T07:23:11;101884.63;;;7.95;85.01
30875;BME280;17581;43.222;27.924;2023-02-28T07:28:12;101904.72;;;8.03;85.93
30875;BME280;17581;43.222;27.924;2023-02-28T07:30:38;101901.50;;;7.97;85.56
30875;BME280;17581;43.222;27.924;2023-02-28T07:33:03;101902.13;;;8.02;85.74
30875;BME280;17581;43.222;27.924;2023-02-28T07:35:29;101898.72;;;7.98;85.03
30875;BME280;17581;43.222;27.924;2023-02-28T07:37:57;101898.19;;;8.09;84.50
30875;BME280;17581;43.222;27.924;2023-02-28T07:40:23;101876.97;;;8.04;83.24
30875;BME280;17581;43.222;27.924;2023-02-28T07:42:48;101887.16;;;8.15;83.95
30875;BME280;17581;43.222;27.924;2023-02-28T07:45:14;101871.47;;;7.90;83.76
30875;BME280;17581;43.222;27.924;2023-02-28T07:47:40;101862.88;;;7.84;84.07
30875;BME280;17581;43.222;27.924;2023-02-28T07:50:08;101889.19;;;7.93;84.50
30875;BME280;17581;43.222;27.924;2023-02-28T07:52:34;101880.53;;;7.88;84.18
30875;BME280;17581;43.222;27.924;2023-02-28T07:54:59;101884.44;;;7.81;84.35
30875;BME280;17581;43.222;27.924;2023-02-28T07:57:25;101885.56;;;7.77;85.37
30875;BME280;17581;43.222;27.924;2023-02-28T07:59:50;101893.09;;;7.68;85.87
30875;BME280;17581;43.222;27.924;2023-02-28T08:02:17;101900.66;;;7.78;86.46
30875;BME280;17581;43.222;27.924;2023-02-28T08:04:44;101905.88;;;7.81;86.57
30875;BME280;17581;43.222;27.924;2023-02-28T08:07:12;101921.28;;;7.94;87.39
30875;BME280;17581;43.222;27.924;2023-02-28T08:09:41;101911.91;;;8.03;87.33
30875;BME280;17581;43.222;27.924;2023-02-28T08:12:08;101921.53;;;8.07;86.44
30875;BME280;17581;43.222;27.924;2023-02-28T08:14:34;101932.72;;;8.15;86.10
30875;BME280;17581;43.222;27.924;2023-02-28T08:17:00;101940.66;;;8.16;85.39
30875;BME280;17581;43.222;27.924;2023-02-28T08:19:26;101940.44;;;8.21;85.65
30875;BME280;17581;43.222;27.924;2023-02-28T08:21:52;101928.97;;;8.36;85.04
30875;BME280;17581;43.222;27.924;2023-02-28T08:24:17;101929.44;;;8.44;84.69
30875;BME280;17581;43.222;27.924;2023-02-28T08:26:43;101940.56;;;8.54;83.66
30875;BME280;17581;43.222;27.924;2023-02-28T08:29:08;101937.47;;;8.44;82.65
30875;BME280;17581;43.222;27.924;2023-02-28T08:31:36;101935.59;;;8.46;82.28
30875;BME280;17581;43.222;27.924;2023-02-28T08:34:11;101935.34;;;8.51;81.17
30875;BME280;17581;43.222;27.924;2023-02-28T08:36:37;101935.91;;;8.40;80.53
30875;BME280;17581;43.222;27.924;2023-02-28T08:39:03;101936.41;;;8.31;79.91
30875;BME280;17581;43.222;27.924;2023-02-28T08:41:29;101923.72;;;8.35;81.02
30875;BME280;17581;43.222;27.924;2023-02-28T08:43:55;101938.19;;;8.31;80.68
30875;BME280;17581;43.222;27.924;2023-02-28T08:46:20;101937.00;;;8.19;81.02
30875;BME280;17581;43.222;27.924;2023-02-28T08:48:46;101926.94;;;8.05;80.27
30875;BME280;17581;43.222;27.924;2023-02-28T08:51:16;101937.44;;;8.10;80.58
30875;BME280;17581;43.222;27.924;2023-02-28T08:53:43;101936.16;;;8.00;80.98
30875;BME280;17581;43.222;27.924;2023-02-28T08:56:11;101949.72;;;7.97;80.84
30875;BME280;17581;43.222;27.924;2023-02-28T08:58:38;101939.31;;;7.91;81.67
30875;BME280;17581;43.222;27.924;2023-02-28T09:01:21;101947.03;;;7.97;82.50
30875;BME280;17581;43.222;27.924;2023-02-28T09:03:48;101946.00;;;7.99;82.22
30875;BME280;17581;43.222;27.924;2023-02-28T09:06:16;101943.44;;;8.15;82.84
30875;BME280;17581;43.222;27.924;2023-02-28T09:08:42;101934.66;;;8.30;83.13
30875;BME280;17581;43.222;27.924;2023-02-28T09:11:09;101929.59;;;8.41;83.73
30875;BME280;17581;43.222;27.924;2023-02-28T09:13:34;101919.03;;;8.55;83.40
30875;BME280;17581;43.222;27.924;2023-02-28T09:16:02;101923.91;;;8.64;83.22
30875;BME280;17581;43.222;27.924;2023-02-28T09:18:29;101927.75;;;8.76;82.18
30875;BME280;17581;43.222;27.924;2023-02-28T09:20:54;101922.78;;;8.86;81.78
30875;BME280;17581;43.222;27.924;2023-02-28T09:23:20;101925.84;;;8.95;81.77
30875;BME280;17581;43.222;27.924;2023-02-28T09:25:48;101930.38;;;9.10;81.14
30875;BME280;17581;43.222;27.924;2023-02-28T09:28:16;101924.63;;;9.01;80.21
30875;BME280;17581;43.222;27.924;2023-02-28T09:30:45;101922.97;;;8.98;79.09
30875;BME280;17581;43.222;27.924;2023-02-28T09:33:12;101925.72;;;8.97;77.95
30875;BME280;17581;43.222;27.924;2023-02-28T09:35:37;101926.06;;;8.91;78.65
30875;BME280;17581;43.222;27.924;2023-02-28T09:38:04;101931.91;;;8.82;79.01
30875;BME280;17581;43.222;27.924;2023-02-28T09:40:30;101936.78;;;8.91;79.96
30875;BME280;17581;43.222;27.924;2023-02-28T09:42:57;101932.69;;;9.01;79.10
30875;BME280;17581;43.222;27.924;2023-02-28T09:45:37;101938.03;;;9.01;78.04
30875;BME280;17581;43.222;27.924;2023-02-28T09:48:14;101951.63;;;8.98;78.06
30875;BME280;17581;43.222;27.924;2023-02-28T09:53:52;101938.91;;;9.01;78.64
30875;BME280;17581;43.222;27.924;2023-02-28T09:56:30;101952.69;;;8.78;78.14
30875;BME280;17581;43.222;27.924;2023-02-28T10:07:20;101959.41;;;8.35;80.00
30875;BME280;17581;43.222;27.924;2023-02-28T10:09:53;101958.34;;;8.20;80.93
30875;BME280;17581;43.222;27.924;2023-02-28T10:12:20;101965.97;;;8.11;81.32
30875;BME280;17581;43.222;27.924;2023-02-28T10:14:49;101958.53;;;7.99;81.69
30875;BME280;17581;43.222;27.924;2023-02-28T10:17:22;101949.56;;;8.00;81.58
30875;BME280;17581;43.222;27.924;2023-02-28T10:22:22;101953.25;;;8.33;81.25
30875;BME280;17581;43.222;27.924;2023-02-28T10:24:53;101949.53;;;8.36;80.70
30875;BME280;17581;43.222;27.924;2023-02-28T10:27:24;101939.16;;;8.47;80.49
30875;BME280;17581;43.222;27.924;2023-02-28T10:29:52;101934.81;;;8.61;80.72
30875;BME280;17581;43.222;27.924;2023-02-28T10:32:38;101933.31;;;8.56;79.31
30875;BME280;17581;43.222;27.924;2023-02-28T10:37:42;101916.66;;;8.66;77.60
30875;BME280;17581;43.222;27.924;2023-02-28T10:45:26;101910.78;;;8.75;79.26
30875;BME280;17581;43.222;27.924;2023-02-28T10:47:56;101912.84;;;8.70;78.34
30875;BME280;17581;43.222;27.924;2023-02-28T10:56:15;101906.75;;;8.84;79.07
30875;BME280;17581;43.222;27.924;2023-02-28T10:58:47;101901.47;;;8.83;79.39
30875;BME280;17581;43.222;27.924;2023-02-28T11:01:20;101894.75;;;8.91;79.56
30875;BME280;17581;43.222;27.924;2023-02-28T11:03:46;101886.63;;;8.93;78.97
30875;BME280;17581;43.222;27.924;2023-02-28T11:06:32;101892.75;;;8.95;78.97
30875;BME280;17581;43.222;27.924;2023-02-28T11:09:02;101889.97;;;8.81;79.08
30875;BME280;17581;43.222;27.924;2023-02-28T11:11:29;101874.81;;;8.80;78.74
30875;BME280;17581;43.222;27.924;2023-02-28T11:14:02;101882.28;;;8.57;78.52
30875;BME280;17581;43.222;27.924;2023-02-28T11:16:34;101891.41;;;8.53;79.53
30875;BME280;17581;43.222;27.924;2023-02-28T11:19:04;101887.91;;;8.53;79.88
30875;BME280;17581;43.222;27.924;2023-02-28T11:21:36;101883.53;;;8.50;80.07
30875;BME280;17581;43.222;27.924;2023-02-28T11:24:18;101881.66;;;8.52;80.26
30875;BME280;17581;43.222;27.924;2023-02-28T11:26:48;101890.69;;;8.67;79.94
30875;BME280;17581;43.222;27.924;2023-02-28T11:29:22;101881.16;;;8.61;80.11
30875;BME280;17581;43.222;27.924;2023-02-28T11:34:41;101866.47;;;8.68;80.23
30875;BME280;17581;43.222;27.924;2023-02-28T11:37:13;101879.25;;;8.81;80.20
30875;BME280;17581;43.222;27.924;2023-02-28T11:39:39;101859.75;;;8.77;78.43
30875;BME280;17581;43.222;27.924;2023-02-28T11:47:43;101854.94;;;8.84;78.95
30875;BME280;17581;43.222;27.924;2023-02-28T11:50:37;101853.88;;;8.86;77.84
30875;BME280;17581;43.222;27.924;2023-02-28T12:09:43;101845.56;;;8.91;76.88
30875;BME280;17581;43.222;27.924;2023-02-28T12:12:29;101838.22;;;8.94;77.27
30875;BME280;17581;43.222;27.924;2023-02-28T12:15:18;101851.56;;;8.96;77.45
30875;BME280;17581;43.222;27.924;2023-02-28T12:23:50;101868.53;;;8.63;77.78
30875;BME280;17581;43.222;27.924;2023-02-28T12:26:42;101855.91;;;8.65;77.38
30875;BME280;17581;43.222;27.924;2023-02-28T12:31:56;101860.59;;;8.62;78.50
30875;BME280;17581;43.222;27.924;2023-02-28T12:34:36;101855.41;;;8.74;78.57
30875;BME280;17581;43.222;27.924;2023-02-28T12:37:10;101859.81;;;8.75;78.07
30875;BME280;17581;43.222;27.924;2023-02-28T12:39:46;101865.84;;;8.81;77.00
30875;BME280;17581;43.222;27.924;2023-02-28T12:42:22;101864.78;;;8.83;76.64
30875;BME280;17581;43.222;27.924;2023-02-28T12:44:54;101857.16;;;8.75;76.57
30875;BME280;17581;43.222;27.924;2023-02-28T12:47:21;101856.22;;;8.59;77.52
30875;BME280;17581;43.222;27.924;2023-02-28T12:50:10;101860.09;;;8.71;77.68
30875;BME280;17581;43.222;27.924;2023-02-28T12:55:19;101841.56;;;8.66;76.59
30875;BME280;17581;43.222;27.924;2023-02-28T13:09:01;101859.50;;;8.49;77.79
30875;BME280;17581;43.222;27.924;2023-02-28T13:14:02;101840.13;;;8.59;78.79
30875;BME280;17581;43.222;27.924;2023-02-28T13:17:10;101842.16;;;8.39;77.35
30875;BME280;17581;43.222;27.924;2023-02-28T13:19:37;101842.25;;;8.37;77.07
30875;BME280;17581;43.222;27.924;2023-02-28T13:22:03;101858.31;;;8.20;78.33
30875;BME280;17581;43.222;27.924;2023-02-28T13:34:38;101864.91;;;8.47;76.62
30875;BME280;17581;43.222;27.924;2023-02-28T13:37:37;101867.28;;;8.53;77.30
30875;BME280;17581;43.222;27.924;2023-02-28T13:50:28;101861.94;;;8.19;77.57
30875;BME280;17581;43.222;27.924;2023-02-28T13:55:27;101859.44;;;8.16;77.46
30875;BME280;17581;43.222;27.924;2023-02-28T13:58:20;101849.03;;;8.10;77.73
30875;BME280;17581;43.222;27.924;2023-02-28T14:03:45;101843.19;;;8.02;79.29
30875;BME280;17581;43.222;27.924;2023-02-28T14:06:26;101835.59;;;7.93;80.20
30875;BME280;17581;43.222;27.924;2023-02-28T14:08:59;101832.94;;;7.93;80.44
30875;BME280;17581;43.222;27.924;2023-02-28T14:11:29;101832.53;;;7.83;80.67
30875;BME280;17581;43.222;27.924;2023-02-28T14:13:56;101827.41;;;7.96;79.85
30875;BME280;17581;43.222;27.924;2023-02-28T14:16:28;101831.75;;;7.98;79.88
30875;BME280;17581;43.222;27.924;2023-02-28T14:19:24;101839.25;;;7.92;80.31
30875;BME280;17581;43.222;27.924;2023-02-28T14:27:46;101838.69;;;8.02;80.09
30875;BME280;17581;43.222;27.924;2023-02-28T14:33:25;101830.59;;;8.04;79.23
30875;BME280;17581;43.222;27.924;2023-02-28T14:36:07;101824.41;;;8.02;79.59
30875;BME280;17581;43.222;27.924;2023-02-28T14:38:42;101833.56;;;7.81;79.92
30875;BME280;17581;43.222;27.924;2023-02-28T14:41:17;101844.81;;;8.04;80.29
30875;BME280;17581;43.222;27.924;2023-02-28T14:43:49;101845.31;;;8.12;80.36
30875;BME280;17581;43.222;27.924;2023-02-28T14:46:17;101837.34;;;8.11;79.86
30875;BME280;17581;43.222;27.924;2023-02-28T14:48:46;101839.38;;;8.23;79.79
30875;BME280;17581;43.222;27.924;2023-02-28T14:51:12;101847.13;;;8.29;78.57
30875;BME280;17581;43.222;27.924;2023-02-28T14:53:43;101848.88;;;8.30;78.21
30875;BME280;17581;43.222;27.924;2023-02-28T14:56:23;101847.75;;;8.17;77.48
30875;BME280;17581;43.222;27.924;2023-02-28T14:58:55;101851.13;;;8.20;78.30
30875;BME280;17581;43.222;27.924;2023-02-28T15:01:23;101852.78;;;8.23;78.67
30875;BME280;17581;43.222;27.924;2023-02-28T15:03:57;101855.41;;;8.25;78.28
30875;BME280;17581;43.222;27.924;2023-02-28T15:06:23;101831.44;;;8.04;78.65
30875;BME280;17581;43.222;27.924;2023-02-28T15:09:07;101850.09;;;8.23;78.91
30875;BME280;17581;43.222;27.924;2023-02-28T15:11:33;101851.41;;;8.33;78.07
30875;BME280;17581;43.222;27.924;2023-02-28T15:14:00;101842.94;;;8.23;77.70
30875;BME280;17581;43.222;27.924;2023-02-28T15:16:29;101842.38;;;8.17;77.90
30875;BME280;17581;43.222;27.924;2023-02-28T15:19:26;101851.69;;;8.27;78.36
30875;BME280;17581;43.222;27.924;2023-02-28T15:22:04;101839.78;;;8.15;77.47
30875;BME280;17581;43.222;27.924;2023-02-28T15:24:41;101835.13;;;8.02;77.65
30875;BME280;17581;43.222;27.924;2023-02-28T15:27:28;101852.03;;;8.04;78.14
30875;BME280;17581;43.222;27.924;2023-02-28T15:29:59;101853.72;;;8.05;78.53
30875;BME280;17581;43.222;27.924;2023-02-28T15:32:36;101845.63;;;8.06;78.52
30875;BME280;17581;43.222;27.924;2023-02-28T15:35:28;101839.31;;;7.90;79.14